Aeroporto :
LOGIN :

Iscrizione | Disclaimer

   EN    FR    IT 

 










Sommario :    VFR   VFR Marginale   IFR   IFR Intensivo   IFR Molto Intensivo
Visibilità : 
Base nubi : 
>= 8 km
>= 3000ft
5 / 8 km
1000 / 3000 ft
1500m / 5 km
500 / 1000 ft
800 / 1500m
200 / 500 ft
< 800m
< 200 ft
Simboli :   Temporali  Nebbia  Neve Forte  Precipitazioni Forti  Vento > 20 kt
SIGMETs :   Varie  Temporali  Ghiacco  Turbolenza  Onda orograficha  Ceneri Vulcaniche






- Altitudine del aeroporto : 598 ft
- Codice IATA : BQH


EGKB - Biggin Hill

ULTIMO METAR :
  • 071820Z 22011KT 9999 BKN020 08/06 Q1012

METARs OBSOLETI :
  • 071750Z 22011KT 9999 BKN020 08/06 Q1013
  • 071720Z 22011KT 190V250 9999 BKN020 08/06 Q1013
  • 071650Z 22010KT 9999 BKN020 09/06 Q1013
  • 071620Z 22010KT 9999 BKN022 09/06 Q1013
  • 071550Z 21009KT 9999 FEW015 BKN030 09/06 Q1013

TAF TAF EGKB
Valido dal 07 a 18 ore il 07 a 22 ore UTC


071659Z 0718/0722 22012KT 9999 SCT035
TEMPO 0719/0722 23020G30KT BKN014



MetMap, La meteo Aeronautica in un colpo d'occhio ! - Copyright ORBIFLY Dicembre 2007 - Disclaimer

ORBIFLY MET'MAP TEAM :

Programmazione e sviluppo : Alexandra Zaïnal
Concezione : Baudouin d'Aumeries
Aiuto per la programmazione : Marc-Olivier Méhu
Supporto tecnico e logistico : Manuel Goepfert
Aiuto per la traduzione : Arnaldo La Scala

Contatto : metmap@orbifly.com




FONTI E CREDITI :

   NOAA